createdAt,value
2022-09-23T00:01:20.199Z,18.05
2022-09-23T00:03:49.213Z,18.98
2022-09-23T00:06:19.589Z,20.55
2022-09-23T00:08:49.630Z,21.15
2022-09-23T00:11:21.957Z,18.90
2022-09-23T00:13:55.018Z,21.90
2022-09-23T00:16:28.630Z,19.25
2022-09-23T00:18:55.901Z,20.98
2022-09-23T00:21:23.457Z,21.15
2022-09-23T00:23:50.844Z,18.98
2022-09-23T00:26:20.564Z,19.75
2022-09-23T00:28:48.841Z,21.75
2022-09-23T00:31:21.696Z,18.67
2022-09-23T00:33:56.950Z,20.08
2022-09-23T00:36:25.417Z,22.23
2022-09-23T00:38:53.087Z,20.95
2022-09-23T00:41:20.506Z,18.65
2022-09-23T00:43:53.660Z,19.63
2022-09-23T00:46:23.562Z,20.38
2022-09-23T00:48:57.193Z,21.85
2022-09-23T00:51:28.265Z,20.50
2022-09-23T00:53:55.992Z,19.85
2022-09-23T00:56:24.438Z,21.27
2022-09-23T00:58:52.215Z,19.63
2022-09-23T01:01:20.056Z,20.73
2022-09-23T01:03:47.575Z,20.30
2022-09-23T01:06:15.060Z,26.58
2022-09-23T01:08:45.216Z,20.63
2022-09-23T01:11:31.760Z,20.25
2022-09-23T01:14:37.025Z,23.83
2022-09-23T01:17:07.521Z,23.58
2022-09-23T01:19:34.641Z,20.20
2022-09-23T01:22:16.716Z,24.55
2022-09-23T01:25:04.951Z,21.25
2022-09-23T01:27:37.780Z,21.63
2022-09-23T01:30:43.211Z,19.95
2022-09-23T01:33:17.418Z,23.38
2022-09-23T01:35:47.860Z,22.80
2022-09-23T01:38:35.713Z,27.70
2022-09-23T01:41:28.724Z,22.25
2022-09-23T01:44:00.823Z,20.60
2022-09-23T01:46:32.914Z,24.02
2022-09-23T01:49:07.555Z,28.40
2022-09-23T01:51:49.501Z,23.48
2022-09-23T01:54:32.764Z,23.40
2022-09-23T01:57:29.708Z,24.60
2022-09-23T02:00:05.227Z,23.20
2022-09-23T02:02:49.717Z,20.95
2022-09-23T02:05:33.315Z,24.92
2022-09-23T02:08:09.206Z,22.00
2022-09-23T02:10:44.740Z,23.50
2022-09-23T02:13:30.053Z,20.25
2022-09-23T02:16:01.454Z,21.00
2022-09-23T02:18:42.269Z,21.00
2022-09-23T02:21:10.158Z,23.25
2022-09-23T02:23:43.884Z,21.30
2022-09-23T02:26:35.376Z,23.02
2022-09-23T02:29:17.454Z,20.77
2022-09-23T02:32:05.368Z,22.02
2022-09-23T02:34:58.934Z,21.73
2022-09-23T02:37:53.278Z,22.83
2022-09-23T02:40:51.064Z,22.43
2022-09-23T02:43:28.169Z,23.67
2022-09-23T02:45:56.241Z,22.23
2022-09-23T02:48:45.452Z,24.48
2022-09-23T02:51:13.457Z,22.60
2022-09-23T02:53:40.823Z,26.33
2022-09-23T02:56:20.292Z,21.55
2022-09-23T02:58:53.640Z,23.17
2022-09-23T03:01:32.836Z,22.15
2022-09-23T03:04:09.395Z,25.58
2022-09-23T03:06:42.681Z,22.17
2022-09-23T03:09:33.221Z,22.25
2022-09-23T03:12:34.439Z,20.38
2022-09-23T03:15:11.161Z,21.92
2022-09-23T03:18:16.110Z,22.35
2022-09-23T03:20:57.839Z,23.75
2022-09-23T03:23:39.838Z,19.83
2022-09-23T03:26:24.060Z,22.38
2022-09-23T03:28:51.791Z,21.55
2022-09-23T03:31:19.111Z,23.75
2022-09-23T03:33:51.118Z,25.63
2022-09-23T03:36:43.941Z,23.23
2022-09-23T03:39:24.379Z,22.65
2022-09-23T03:41:55.294Z,25.10
2022-09-23T03:44:22.491Z,24.08
2022-09-23T03:46:52.157Z,20.25
2022-09-23T03:49:27.465Z,22.90
2022-09-23T03:51:56.155Z,25.00
2022-09-23T03:54:23.378Z,22.02
2022-09-23T03:56:50.532Z,20.92
2022-09-23T03:59:17.602Z,23.40
2022-09-23T04:01:46.189Z,22.40
2022-09-23T04:04:13.357Z,23.75
2022-09-23T04:06:40.378Z,27.30
2022-09-23T04:09:08.009Z,28.33
2022-09-23T04:11:35.572Z,24.67
2022-09-23T04:14:02.723Z,26.63
2022-09-23T04:16:29.908Z,25.65
2022-09-23T04:18:56.990Z,28.92
2022-09-23T04:21:24.037Z,30.83
2022-09-23T04:23:51.083Z,28.75
2022-09-23T04:26:19.258Z,31.13
2022-09-23T04:28:46.296Z,27.77
2022-09-23T04:31:13.501Z,24.58
2022-09-23T04:33:40.621Z,26.77
2022-09-23T04:36:08.072Z,25.50
2022-09-23T04:38:35.153Z,27.30
2022-09-23T04:41:02.135Z,27.77
2022-09-23T04:43:29.273Z,29.30
2022-09-23T04:46:05.440Z,25.58
2022-09-23T04:48:33.028Z,28.35
2022-09-23T04:51:04.726Z,29.25
2022-09-23T04:53:32.629Z,29.15
2022-09-23T04:56:03.326Z,29.55
2022-09-23T04:58:30.576Z,29.33
2022-09-23T05:01:01.717Z,34.38
2022-09-23T05:03:35.780Z,42.40
2022-09-23T05:06:02.961Z,41.85
2022-09-23T05:08:30.103Z,40.22
2022-09-23T05:11:02.259Z,34.83
2022-09-23T05:13:29.288Z,40.53
2022-09-23T05:16:08.412Z,32.95
2022-09-23T05:18:36.805Z,32.13
2022-09-23T05:21:04.264Z,31.65
2022-09-23T05:23:31.626Z,27.48
2022-09-23T05:26:00.982Z,30.35
2022-09-23T05:28:32.991Z,32.10
2022-09-23T05:31:19.356Z,27.85
2022-09-23T05:33:52.913Z,31.02
2022-09-23T05:36:23.502Z,32.67
2022-09-23T05:38:51.588Z,34.63
2022-09-23T05:41:21.004Z,31.08
2022-09-23T05:43:48.101Z,29.05
2022-09-23T05:46:17.630Z,33.75
2022-09-23T05:48:48.148Z,29.83
2022-09-23T05:51:17.881Z,34.17
2022-09-23T05:53:45.692Z,32.17
2022-09-23T05:56:14.969Z,30.00
2022-09-23T05:58:42.195Z,35.40
2022-09-23T06:01:14.344Z,38.78
2022-09-23T06:03:41.693Z,33.95
2022-09-23T06:06:14.738Z,31.40
2022-09-23T06:08:42.511Z,41.00
2022-09-23T06:11:10.304Z,36.95
2022-09-23T06:13:38.411Z,34.08
2022-09-23T06:16:12.299Z,36.67
2022-09-23T06:18:43.952Z,34.80
2022-09-23T06:21:17.768Z,33.22
2022-09-23T06:23:46.009Z,27.67
2022-09-23T06:26:15.826Z,27.88
2022-09-23T06:28:44.576Z,32.55
2022-09-23T06:31:15.458Z,33.92
2022-09-23T06:33:46.420Z,28.35
2022-09-23T06:36:28.525Z,30.42
2022-09-23T06:39:02.436Z,23.60
2022-09-23T06:41:30.005Z,29.63
2022-09-23T06:43:58.454Z,32.03
2022-09-23T06:46:25.761Z,28.40
2022-09-23T06:48:52.858Z,35.33
2022-09-23T06:51:19.976Z,30.25
2022-09-23T06:53:48.739Z,29.60
2022-09-23T06:56:17.623Z,33.15
2022-09-23T06:58:44.746Z,29.70
2022-09-23T07:01:19.291Z,29.55
2022-09-23T07:03:48.597Z,21.08
2022-09-23T07:06:17.003Z,25.95
2022-09-23T07:08:47.215Z,25.13
2022-09-23T07:11:15.693Z,23.67
2022-09-23T07:13:42.829Z,21.92
2022-09-23T07:16:11.346Z,19.45
2022-09-23T07:18:39.201Z,18.75
2022-09-23T07:21:08.551Z,22.90
2022-09-23T07:23:37.855Z,19.02
2022-09-23T07:26:05.891Z,26.75
2022-09-23T07:28:32.907Z,24.02
2022-09-23T07:31:11.118Z,19.77
2022-09-23T07:33:39.939Z,20.20
2022-09-23T07:36:09.205Z,25.48
2022-09-23T07:38:40.379Z,17.77
2022-09-23T07:41:12.106Z,20.15
2022-09-23T07:43:40.889Z,22.08
2022-09-23T07:46:15.215Z,17.10
2022-09-23T07:48:43.233Z,17.00
2022-09-23T07:51:13.447Z,16.08
2022-09-23T07:53:40.605Z,17.35
2022-09-23T07:56:07.666Z,18.30
2022-09-23T07:58:35.627Z,17.25
2022-09-23T08:01:05.384Z,22.52
2022-09-23T08:03:32.761Z,18.50
2022-09-23T08:06:14.470Z,16.60
2022-09-23T08:08:44.626Z,13.93
2022-09-23T08:11:14.402Z,23.35
2022-09-23T08:13:42.074Z,16.05
2022-09-23T08:16:09.683Z,17.00
2022-09-23T08:18:36.931Z,14.30
2022-09-23T08:21:04.291Z,15.57
2022-09-23T08:23:34.173Z,12.30
2022-09-23T08:26:05.153Z,16.95
2022-09-23T08:28:34.000Z,10.95
2022-09-23T08:31:01.347Z,14.30
2022-09-23T08:33:28.666Z,8.45
2022-09-23T08:36:00.884Z,10.60
2022-09-23T08:38:28.676Z,8.32
2022-09-23T08:41:14.408Z,9.10
2022-09-23T08:43:48.104Z,9.48
2022-09-23T08:46:22.157Z,9.70
2022-09-23T08:48:50.290Z,15.00
2022-09-23T08:51:29.505Z,13.25
2022-09-23T08:53:58.357Z,10.50
2022-09-23T08:56:25.560Z,8.25
2022-09-23T08:59:07.645Z,13.65
2022-09-23T09:01:37.322Z,8.63
2022-09-23T09:04:24.505Z,7.07
2022-09-23T09:07:12.384Z,8.02
2022-09-23T09:09:51.130Z,8.13
2022-09-23T09:12:31.252Z,6.18
2022-09-23T09:15:05.089Z,12.73
2022-09-23T09:17:48.579Z,6.75
2022-09-23T09:20:17.343Z,7.78
2022-09-23T09:22:44.388Z,6.68
2022-09-23T09:25:41.724Z,6.90
2022-09-23T09:28:43.156Z,5.47
2022-09-23T09:31:26.834Z,11.45
2022-09-23T09:34:09.501Z,8.63
2022-09-23T09:36:57.895Z,7.72
2022-09-23T09:39:26.282Z,4.28
2022-09-23T09:41:55.554Z,3.55
2022-09-23T09:44:29.107Z,3.78
2022-09-23T09:47:22.569Z,5.03
2022-09-23T09:49:55.642Z,7.13
2022-09-23T09:52:26.382Z,6.35
2022-09-23T09:54:53.449Z,4.38
2022-09-23T09:57:35.134Z,7.15
2022-09-23T10:00:22.047Z,5.22
2022-09-23T10:03:04.096Z,5.40
2022-09-23T10:05:45.872Z,3.97
2022-09-23T10:08:19.471Z,5.78
2022-09-23T10:10:58.653Z,5.55
2022-09-23T10:13:27.406Z,3.85
2022-09-23T10:15:56.123Z,4.60
2022-09-23T10:18:32.332Z,3.83
2022-09-23T10:21:07.279Z,6.22
2022-09-23T10:23:40.234Z,5.25
2022-09-23T10:26:08.691Z,5.50
2022-09-23T10:28:44.804Z,3.85
2022-09-23T10:31:32.824Z,5.75
2022-09-23T10:34:02.770Z,5.22
2022-09-23T10:36:32.826Z,4.00
2022-09-23T10:39:23.703Z,5.03
2022-09-23T10:42:12.376Z,4.03
2022-09-23T10:45:14.392Z,3.00
2022-09-23T10:47:57.185Z,6.65
2022-09-23T10:50:39.048Z,8.52
2022-09-23T10:53:24.744Z,4.25
2022-09-23T10:56:15.805Z,5.03
2022-09-23T10:59:01.132Z,6.15
2022-09-23T11:01:46.253Z,2.50
2022-09-23T11:04:16.615Z,4.53
2022-09-23T11:07:09.974Z,4.00
2022-09-23T11:10:23.243Z,2.97
2022-09-23T11:13:44.477Z,4.70
2022-09-23T11:16:41.021Z,2.92
2022-09-23T11:19:46.938Z,2.13
2022-09-23T11:22:41.811Z,2.95
2022-09-23T11:25:24.090Z,1.65
2022-09-23T11:27:54.216Z,3.67
2022-09-23T11:30:21.815Z,2.58
2022-09-23T11:33:24.106Z,1.90
2022-09-23T11:35:56.206Z,1.45
2022-09-23T11:38:26.331Z,1.20
2022-09-23T11:41:05.711Z,14.65
2022-09-23T11:43:38.967Z,6.55
2022-09-23T11:46:24.317Z,1.30
2022-09-23T11:49:35.231Z,1.40
2022-09-23T11:52:19.876Z,1.63
2022-09-23T11:54:56.882Z,1.42
2022-09-23T11:57:41.624Z,1.95
2022-09-23T12:00:19.318Z,2.47
2022-09-23T12:03:11.426Z,2.63
2022-09-23T12:05:44.618Z,2.63
2022-09-23T12:08:34.846Z,3.08
2022-09-23T12:11:23.968Z,2.00
2022-09-23T12:14:04.129Z,1.52
2022-09-23T12:16:43.312Z,5.35
2022-09-23T12:19:41.061Z,3.00
2022-09-23T12:22:47.517Z,5.32
2022-09-23T12:25:51.582Z,3.03
2022-09-23T12:28:26.690Z,2.40
2022-09-23T12:30:57.501Z,3.42
2022-09-23T12:33:30.232Z,2.60
2022-09-23T12:36:12.256Z,2.47
2022-09-23T12:38:50.441Z,2.65
2022-09-23T12:41:26.680Z,1.75
2022-09-23T12:44:14.045Z,2.30
2022-09-23T12:46:46.047Z,1.38
2022-09-23T12:49:29.394Z,2.95
2022-09-23T12:52:13.831Z,4.20
2022-09-23T12:57:12.257Z,2.00
2022-09-23T12:59:59.270Z,3.03
2022-09-23T13:02:37.698Z,6.38
2022-09-23T13:05:40.406Z,2.63
2022-09-23T13:08:25.780Z,1.42
2022-09-23T13:10:56.920Z,2.30
2022-09-23T13:13:26.711Z,2.80
2022-09-23T13:15:55.150Z,2.70
2022-09-23T13:18:22.190Z,2.70
2022-09-23T13:20:54.045Z,2.80
2022-09-23T13:23:30.306Z,6.20
2022-09-23T13:26:03.062Z,4.95
2022-09-23T13:28:34.668Z,4.88
2022-09-23T13:31:15.016Z,1.60
2022-09-23T13:33:50.572Z,2.28
2022-09-23T13:36:19.926Z,1.50
2022-09-23T13:38:47.262Z,1.20
2022-09-23T13:41:20.558Z,4.88
2022-09-23T13:44:06.006Z,1.40
2022-09-23T13:46:45.987Z,3.28
2022-09-23T13:49:24.656Z,2.42
2022-09-23T13:51:55.253Z,3.50
2022-09-23T13:54:36.408Z,2.90
2022-09-23T13:57:04.369Z,3.85
2022-09-23T13:59:37.946Z,3.20
2022-09-23T14:02:04.984Z,3.05
2022-09-23T14:04:32.151Z,1.83
2022-09-23T14:06:59.386Z,1.80
2022-09-23T14:09:29.209Z,2.55
2022-09-23T14:11:59.603Z,1.58
2022-09-23T14:14:29.001Z,1.90
2022-09-23T14:16:57.259Z,5.28
2022-09-23T14:19:26.039Z,1.88
2022-09-23T14:21:55.084Z,3.38
2022-09-23T14:24:38.192Z,2.63
2022-09-23T14:27:08.310Z,3.20
2022-09-23T14:29:41.084Z,2.22
2022-09-23T14:32:21.342Z,2.20
2022-09-23T14:35:05.008Z,2.13
2022-09-23T14:37:56.439Z,1.67
2022-09-23T14:40:36.091Z,2.15
2022-09-23T14:43:25.781Z,2.40
2022-09-23T14:46:00.185Z,1.80
2022-09-23T14:48:31.216Z,4.57
2022-09-23T14:51:00.658Z,1.63
2022-09-23T14:53:40.942Z,5.43
2022-09-23T14:56:08.030Z,10.30
2022-09-23T14:58:52.966Z,10.05
2022-09-23T15:01:32.485Z,10.07
2022-09-23T15:04:21.376Z,6.68
2022-09-23T15:06:50.930Z,4.45
2022-09-23T15:09:44.891Z,3.40
2022-09-23T15:12:21.584Z,3.60
2022-09-23T15:14:55.156Z,2.88
2022-09-23T15:17:30.245Z,5.55
2022-09-23T15:20:00.954Z,2.20
2022-09-23T15:22:28.618Z,2.72
2022-09-23T15:25:21.019Z,3.42
2022-09-23T15:28:04.360Z,3.95
2022-09-23T15:30:32.133Z,2.78
2022-09-23T15:33:00.036Z,2.92
2022-09-23T15:35:28.459Z,2.25
2022-09-23T15:37:58.897Z,2.40
2022-09-23T15:40:28.577Z,1.88
2022-09-23T15:43:01.329Z,1.40
2022-09-23T15:45:35.417Z,3.17
2022-09-23T15:48:12.046Z,2.25
2022-09-23T15:50:41.321Z,2.40
2022-09-23T15:53:13.397Z,2.28
2022-09-23T15:55:40.455Z,1.85
2022-09-23T15:58:07.531Z,3.22
2022-09-23T16:00:38.067Z,4.82
2022-09-23T16:03:06.730Z,4.72
2022-09-23T16:05:39.247Z,4.07
2022-09-23T16:08:09.642Z,4.82
2022-09-23T16:10:37.586Z,7.60
2022-09-23T16:13:09.138Z,3.80
2022-09-23T16:15:36.283Z,6.10
2022-09-23T16:18:03.390Z,5.82
2022-09-23T16:20:30.872Z,8.38
2022-09-23T16:23:00.787Z,6.93
2022-09-23T16:25:30.459Z,7.40
2022-09-23T16:27:58.535Z,6.32
2022-09-23T16:30:28.169Z,8.50
2022-09-23T16:32:56.085Z,6.88
2022-09-23T16:35:26.993Z,8.68
2022-09-23T16:37:54.315Z,8.63
2022-09-23T16:40:23.218Z,7.97
2022-09-23T16:42:52.695Z,9.82
2022-09-23T16:45:23.137Z,7.97
2022-09-23T16:47:52.014Z,6.43
2022-09-23T16:50:22.117Z,7.13
2022-09-23T16:52:51.674Z,8.18
2022-09-23T16:55:18.874Z,6.95
2022-09-23T16:57:45.890Z,5.13
2022-09-23T17:00:34.351Z,5.65
2022-09-23T17:03:20.903Z,7.05
2022-09-23T17:05:49.248Z,6.07
2022-09-23T17:08:17.622Z,7.80
2022-09-23T17:10:55.086Z,5.90
2022-09-23T17:13:22.243Z,8.77
2022-09-23T17:15:49.958Z,8.68
2022-09-23T17:18:19.562Z,11.25
2022-09-23T17:21:07.750Z,10.45
2022-09-23T17:23:36.577Z,13.68
2022-09-23T17:26:05.630Z,10.43
2022-09-23T17:28:32.708Z,8.65
2022-09-23T17:31:02.221Z,12.55
2022-09-23T17:33:31.240Z,12.93
2022-09-23T17:36:00.276Z,8.90
2022-09-23T17:38:29.422Z,12.65
2022-09-23T17:40:59.439Z,10.88
2022-09-23T17:43:27.018Z,12.15
2022-09-23T17:45:56.552Z,10.35
2022-09-23T17:48:25.679Z,14.18
2022-09-23T17:51:02.249Z,16.88
2022-09-23T17:53:35.121Z,12.38
2022-09-23T17:56:12.641Z,11.63
2022-09-23T17:58:39.861Z,12.15
2022-09-23T18:01:17.976Z,15.82
2022-09-23T18:03:45.696Z,11.60
2022-09-23T18:06:20.167Z,10.20
2022-09-23T18:11:24.268Z,12.98
2022-09-23T18:13:56.784Z,11.38
2022-09-23T18:16:26.483Z,14.50
2022-09-23T18:18:55.484Z,12.93
2022-09-23T18:21:24.770Z,9.50
2022-09-23T18:23:52.038Z,13.55
2022-09-23T18:26:24.549Z,14.27
2022-09-23T18:28:53.894Z,11.90
2022-09-23T18:31:21.003Z,17.10
2022-09-23T18:33:52.467Z,18.83
2022-09-23T18:36:22.180Z,28.48
2022-09-23T18:38:50.548Z,44.25
2022-09-23T18:41:18.272Z,36.35
2022-09-23T18:43:48.534Z,39.78
2022-09-23T18:46:21.657Z,40.90
2022-09-23T18:49:07.691Z,39.65
2022-09-23T18:51:38.204Z,36.85
2022-09-23T18:54:07.505Z,31.27
2022-09-23T18:56:41.139Z,32.30
2022-09-23T18:59:11.941Z,31.50
2022-09-23T19:01:39.161Z,29.90
2022-09-23T19:04:07.376Z,27.77
2022-09-23T19:06:35.448Z,22.75
2022-09-23T19:09:02.599Z,20.13
2022-09-23T19:11:29.817Z,19.45
2022-09-23T19:13:58.836Z,20.25
2022-09-23T19:16:26.237Z,18.73
2022-09-23T19:18:53.585Z,19.42
2022-09-23T19:21:22.911Z,20.08
2022-09-23T19:23:53.313Z,17.10
2022-09-23T19:26:24.827Z,19.30
2022-09-23T19:28:57.080Z,17.85
2022-09-23T19:31:27.487Z,18.25
2022-09-23T19:33:59.429Z,17.00
2022-09-23T19:36:39.070Z,20.20
2022-09-23T19:39:09.075Z,17.45
2022-09-23T19:41:36.102Z,18.33
2022-09-23T19:44:04.369Z,18.83
2022-09-23T19:46:32.614Z,19.35
2022-09-23T19:49:00.897Z,20.92
2022-09-23T19:51:28.421Z,18.60
2022-09-23T19:53:55.491Z,20.13
2022-09-23T19:56:22.927Z,20.08
2022-09-23T19:58:54.519Z,19.77
2022-09-23T20:01:22.622Z,22.15
2022-09-23T20:03:50.442Z,30.00
2022-09-23T20:06:18.167Z,28.15
2022-09-23T20:08:45.645Z,25.77
2022-09-23T20:11:26.177Z,24.02
2022-09-23T20:14:01.014Z,26.83
2022-09-23T20:16:32.508Z,27.45
2022-09-23T20:19:00.418Z,27.35
2022-09-23T20:21:29.376Z,28.20
2022-09-23T20:23:57.450Z,29.85
2022-09-23T20:26:43.346Z,31.92
2022-09-23T20:29:11.418Z,31.70
2022-09-23T20:31:40.511Z,26.42
2022-09-23T20:34:10.148Z,27.00
2022-09-23T20:36:39.140Z,24.80
2022-09-23T20:39:06.727Z,22.33
2022-09-23T20:41:37.772Z,25.73
2022-09-23T20:44:08.275Z,22.67
2022-09-23T20:46:35.991Z,24.58
2022-09-23T20:49:04.368Z,23.00
2022-09-23T20:51:33.560Z,23.05
2022-09-23T20:54:00.983Z,30.27
2022-09-23T20:56:29.234Z,26.00
2022-09-23T20:59:01.050Z,20.85
2022-09-23T21:01:28.411Z,21.60
2022-09-23T21:03:56.163Z,22.67
2022-09-23T21:06:26.508Z,21.80
2022-09-23T21:08:55.063Z,20.73
2022-09-23T21:11:22.630Z,24.88
2022-09-23T21:13:51.204Z,21.52
2022-09-23T21:16:22.855Z,22.85
2022-09-23T21:18:51.423Z,22.00
2022-09-23T21:21:20.052Z,19.92
2022-09-23T21:23:47.822Z,23.65
2022-09-23T21:26:18.787Z,23.33
2022-09-23T21:28:50.739Z,23.30
2022-09-23T21:31:26.209Z,22.95
2022-09-23T21:34:01.269Z,22.83
2022-09-23T21:36:30.768Z,25.50
2022-09-23T21:38:58.283Z,21.48
2022-09-23T21:41:25.811Z,22.98
2022-09-23T21:43:53.157Z,22.27
2022-09-23T21:46:21.420Z,26.13
2022-09-23T21:48:53.061Z,22.77
2022-09-23T21:51:23.169Z,21.88
2022-09-23T21:53:50.554Z,24.73
2022-09-23T21:56:21.218Z,24.60
2022-09-23T21:58:49.066Z,24.92
2022-09-23T22:01:27.889Z,23.33
2022-09-23T22:03:57.661Z,26.40
2022-09-23T22:06:27.562Z,28.60
2022-09-23T22:09:01.900Z,33.65
2022-09-23T22:11:49.825Z,28.38
2022-09-23T22:14:18.664Z,31.15
2022-09-23T22:16:45.903Z,29.38
2022-09-23T22:19:14.014Z,28.63
2022-09-23T22:21:43.344Z,28.80
2022-09-23T22:24:12.194Z,29.55
2022-09-23T22:26:41.532Z,28.38
2022-09-23T22:29:29.513Z,27.08
2022-09-23T22:32:15.288Z,27.33
2022-09-23T22:34:51.061Z,25.25
2022-09-23T22:37:32.886Z,28.98
2022-09-23T22:40:00.716Z,26.15
2022-09-23T22:42:28.141Z,23.85
2022-09-23T22:44:58.033Z,26.90
2022-09-23T22:47:25.182Z,26.80
2022-09-23T22:49:54.736Z,30.30
2022-09-23T22:52:24.644Z,27.65
2022-09-23T22:54:52.438Z,25.42
2022-09-23T22:57:19.951Z,28.70
2022-09-23T22:59:50.446Z,27.85
2022-09-23T23:02:19.583Z,26.48
2022-09-23T23:04:47.844Z,24.55
2022-09-23T23:07:19.968Z,23.75
2022-09-23T23:09:49.798Z,25.60
2022-09-23T23:12:18.303Z,26.85
2022-09-23T23:14:45.780Z,24.98
2022-09-23T23:17:12.830Z,24.92
2022-09-23T23:19:39.872Z,27.92
2022-09-23T23:22:07.007Z,29.92
2022-09-23T23:24:34.108Z,26.52
2022-09-23T23:27:01.196Z,26.52
2022-09-23T23:29:28.257Z,30.42
2022-09-23T23:31:55.400Z,23.58
2022-09-23T23:34:23.101Z,28.20
2022-09-23T23:36:56.941Z,25.75
2022-09-23T23:39:25.078Z,21.67
2022-09-23T23:41:57.641Z,30.85
2022-09-23T23:44:26.509Z,28.05
2022-09-23T23:46:54.616Z,25.08
2022-09-23T23:49:21.869Z,23.77
2022-09-23T23:51:50.150Z,24.25
2022-09-23T23:54:17.511Z,22.67
2022-09-23T23:56:44.882Z,26.33
2022-09-23T23:59:12.243Z,25.30
